sensor_id;sensor_type;location;lat;lon;timestamp;pressure;altitude;pressure_sealevel;temperature;humidity
41040;BME280;48586;50.122;18.972;2023-04-24T00:02:02;97627.09;;;13.04;51.09
41040;BME280;48586;50.122;18.972;2023-04-24T00:04:08;97627.09;;;13.04;51.25
41040;BME280;48586;50.122;18.972;2023-04-24T00:06:15;97627.66;;;13.01;50.66
41040;BME280;48586;50.122;18.972;2023-04-24T00:08:19;97625.50;;;13.03;50.36
41040;BME280;48586;50.122;18.972;2023-04-24T00:10:25;97628.97;;;13.04;49.92
41040;BME280;48586;50.122;18.972;2023-04-24T00:12:29;97627.09;;;13.04;49.29
41040;BME280;48586;50.122;18.972;2023-04-24T00:14:34;97624.69;;;13.08;49.43
41040;BME280;48586;50.122;18.972;2023-04-24T00:16:41;97620.69;;;13.10;49.36
41040;BME280;48586;50.122;18.972;2023-04-24T00:18:46;97616.66;;;13.13;48.81
41040;BME280;48586;50.122;18.972;2023-04-24T00:20:50;97618.28;;;13.14;48.94
41040;BME280;48586;50.122;18.972;2023-04-24T00:22:55;97611.59;;;13.16;48.15
41040;BME280;48586;50.122;18.972;2023-04-24T00:24:59;97613.44;;;13.21;48.01
41040;BME280;48586;50.122;18.972;2023-04-24T00:27:04;97604.09;;;13.23;48.37
41040;BME280;48586;50.122;18.972;2023-04-24T00:29:08;97605.69;;;13.24;48.28
41040;BME280;48586;50.122;18.972;2023-04-24T00:31:13;97603.00;;;13.24;47.93
41040;BME280;48586;50.122;18.972;2023-04-24T00:33:20;97604.59;;;13.25;47.71
41040;BME280;48586;50.122;18.972;2023-04-24T00:35:25;97599.25;;;13.25;47.55
41040;BME280;48586;50.122;18.972;2023-04-24T00:37:29;97595.53;;;13.27;47.59
41040;BME280;48586;50.122;18.972;2023-04-24T00:39:33;97593.09;;;13.30;47.34
41040;BME280;48586;50.122;18.972;2023-04-24T00:41:38;97587.50;;;13.32;47.11
41040;BME280;48586;50.122;18.972;2023-04-24T00:43:43;97589.09;;;13.33;46.73
41040;BME280;48586;50.122;18.972;2023-04-24T00:45:47;97587.50;;;13.32;46.89
41040;BME280;48586;50.122;18.972;2023-04-24T00:47:52;97585.91;;;13.31;46.72
41040;BME280;48586;50.122;18.972;2023-04-24T00:50:01;97579.47;;;13.32;46.71
41040;BME280;48586;50.122;18.972;2023-04-24T00:52:06;97585.91;;;13.31;46.59
41040;BME280;48586;50.122;18.972;2023-04-24T00:54:11;97581.88;;;13.28;46.55
41040;BME280;48586;50.122;18.972;2023-04-24T00:56:15;97579.50;;;13.27;46.49
41040;BME280;48586;50.122;18.972;2023-04-24T00:58:19;97580.53;;;13.25;46.58
41040;BME280;48586;50.122;18.972;2023-04-24T01:00:25;97574.41;;;13.25;46.32
41040;BME280;48586;50.122;18.972;2023-04-24T01:02:30;97580.53;;;13.25;46.51
41040;BME280;48586;50.122;18.972;2023-04-24T01:04:35;97579.22;;;13.23;46.57
41040;BME280;48586;50.122;18.972;2023-04-24T01:06:44;97581.34;;;13.21;46.41
41040;BME280;48586;50.122;18.972;2023-04-24T01:08:49;97580.56;;;13.20;46.44
41040;BME280;48586;50.122;18.972;2023-04-24T01:10:54;97574.13;;;13.21;46.12
41040;BME280;48586;50.122;18.972;2023-04-24T01:13:01;97574.13;;;13.21;46.04
41040;BME280;48586;50.122;18.972;2023-04-24T01:15:07;97567.72;;;13.22;46.11
41040;BME280;48586;50.122;18.972;2023-04-24T01:17:12;97572.81;;;13.24;45.92
41040;BME280;48586;50.122;18.972;2023-04-24T01:19:18;97570.94;;;13.24;45.64
41040;BME280;48586;50.122;18.972;2023-04-24T01:21:23;97565.84;;;13.23;45.78
41040;BME280;48586;50.122;18.972;2023-04-24T01:23:35;97559.72;;;13.22;45.61
41040;BME280;48586;50.122;18.972;2023-04-24T01:25:40;97564.25;;;13.22;45.63
41040;BME280;48586;50.122;18.972;2023-04-24T01:27:44;97556.25;;;13.22;45.59
41040;BME280;48586;50.122;18.972;2023-04-24T01:29:49;97564.25;;;13.22;45.71
41040;BME280;48586;50.122;18.972;2023-04-24T01:31:55;97559.97;;;13.21;45.62
41040;BME280;48586;50.122;18.972;2023-04-24T01:33:59;97553.81;;;13.20;45.56
41040;BME280;48586;50.122;18.972;2023-04-24T01:36:04;97553.31;;;13.18;45.25
41040;BME280;48586;50.122;18.972;2023-04-24T01:38:10;97550.09;;;13.16;45.32
41040;BME280;48586;50.122;18.972;2023-04-24T01:40:17;97553.84;;;13.15;45.36
41040;BME280;48586;50.122;18.972;2023-04-24T01:42:21;97547.97;;;13.13;45.68
41040;BME280;48586;50.122;18.972;2023-04-24T01:44:27;97549.81;;;13.13;45.16
41040;BME280;48586;50.122;18.972;2023-04-24T01:46:32;97548.22;;;13.12;45.34
41040;BME280;48586;50.122;18.972;2023-04-24T01:48:39;97546.91;;;13.09;44.93
41040;BME280;48586;50.122;18.972;2023-04-24T01:50:44;97545.56;;;13.07;45.06
41040;BME280;48586;50.122;18.972;2023-04-24T01:52:48;97533.03;;;13.02;44.87
41040;BME280;48586;50.122;18.972;2023-04-24T01:54:52;97535.16;;;13.00;45.15
41040;BME280;48586;50.122;18.972;2023-04-24T01:57:00;97543.19;;;12.95;44.91
41040;BME280;48586;50.122;18.972;2023-04-24T01:59:07;97535.72;;;12.92;44.90
41040;BME280;48586;50.122;18.972;2023-04-24T02:01:15;97543.19;;;12.90;44.98
41040;BME280;48586;50.122;18.972;2023-04-24T02:03:23;97536.25;;;12.89;44.87
41040;BME280;48586;50.122;18.972;2023-04-24T02:05:28;97540.81;;;12.88;44.85
41040;BME280;48586;50.122;18.972;2023-04-24T02:07:32;97535.47;;;12.88;45.08
41040;BME280;48586;50.122;18.972;2023-04-24T02:09:38;97530.13;;;12.88;44.88
41040;BME280;48586;50.122;18.972;2023-04-24T02:11:42;97527.44;;;12.88;44.62
41040;BME280;48586;50.122;18.972;2023-04-24T02:13:48;97530.38;;;12.87;44.88
41040;BME280;48586;50.122;18.972;2023-04-24T02:15:55;97526.09;;;12.86;44.66
41040;BME280;48586;50.122;18.972;2023-04-24T02:17:59;97520.75;;;12.86;44.88
41040;BME280;48586;50.122;18.972;2023-04-24T02:20:07;97529.84;;;12.85;44.92
41040;BME280;48586;50.122;18.972;2023-04-24T02:22:13;97517.28;;;12.80;45.31
41040;BME280;48586;50.122;18.972;2023-04-24T02:24:18;97513.53;;;12.76;45.21
41040;BME280;48586;50.122;18.972;2023-04-24T02:26:22;97515.66;;;12.74;45.10
41040;BME280;48586;50.122;18.972;2023-04-24T02:28:27;97520.50;;;12.72;44.81
41040;BME280;48586;50.122;18.972;2023-04-24T02:30:33;97522.09;;;12.68;45.01
41040;BME280;48586;50.122;18.972;2023-04-24T02:32:38;97513.28;;;12.67;45.13
41040;BME280;48586;50.122;18.972;2023-04-24T02:34:46;97513.56;;;12.66;44.85
41040;BME280;48586;50.122;18.972;2023-04-24T02:36:50;97515.69;;;12.64;44.54
41040;BME280;48586;50.122;18.972;2023-04-24T02:38:54;97510.63;;;12.62;44.89
41040;BME280;48586;50.122;18.972;2023-04-24T02:40:59;97511.16;;;12.59;44.96
41040;BME280;48586;50.122;18.972;2023-04-24T02:43:06;97511.44;;;12.58;44.79
41040;BME280;48586;50.122;18.972;2023-04-24T02:45:11;97513.84;;;12.54;44.47
41040;BME280;48586;50.122;18.972;2023-04-24T02:47:20;97509.56;;;12.53;44.48
41040;BME280;48586;50.122;18.972;2023-04-24T02:49:24;97519.44;;;12.52;44.77
41040;BME280;48586;50.122;18.972;2023-04-24T02:51:29;97513.56;;;12.56;44.27
41040;BME280;48586;50.122;18.972;2023-04-24T02:53:34;97516.50;;;12.59;44.08
41040;BME280;48586;50.122;18.972;2023-04-24T02:55:38;97509.81;;;12.62;43.99
41040;BME280;48586;50.122;18.972;2023-04-24T02:57:42;97503.13;;;12.64;43.89
41040;BME280;48586;50.122;18.972;2023-04-24T02:59:47;97507.94;;;12.67;43.66
41040;BME280;48586;50.122;18.972;2023-04-24T03:01:51;97508.75;;;12.68;43.75
41040;BME280;48586;50.122;18.972;2023-04-24T03:03:57;97505.00;;;12.69;43.89
41040;BME280;48586;50.122;18.972;2023-04-24T03:06:02;97504.47;;;12.72;43.63
41040;BME280;48586;50.122;18.972;2023-04-24T03:08:08;97511.16;;;12.74;43.28
41040;BME280;48586;50.122;18.972;2023-04-24T03:10:12;97503.66;;;12.76;43.17
41040;BME280;48586;50.122;18.972;2023-04-24T03:12:17;97508.47;;;12.80;43.00
41040;BME280;48586;50.122;18.972;2023-04-24T03:14:21;97508.47;;;12.85;42.83
41040;BME280;48586;50.122;18.972;2023-04-24T03:16:25;97512.19;;;12.89;42.37
41040;BME280;48586;50.122;18.972;2023-04-24T03:18:30;97510.03;;;12.91;42.43
41040;BME280;48586;50.122;18.972;2023-04-24T03:20:37;97508.72;;;12.93;42.09
41040;BME280;48586;50.122;18.972;2023-04-24T03:22:42;97506.56;;;12.95;42.33
41040;BME280;48586;50.122;18.972;2023-04-24T03:24:47;97503.06;;;13.00;42.77
41040;BME280;48586;50.122;18.972;2023-04-24T03:26:53;97509.75;;;13.03;43.16
41040;BME280;48586;50.122;18.972;2023-04-24T03:29:33;97504.38;;;13.08;43.54
41040;BME280;48586;50.122;18.972;2023-04-24T03:31:38;97508.91;;;13.12;43.87
41040;BME280;48586;50.122;18.972;2023-04-24T03:33:42;97507.03;;;13.13;44.37
41040;BME280;48586;50.122;18.972;2023-04-24T03:35:49;97507.88;;;13.13;43.83
41040;BME280;48586;50.122;18.972;2023-04-24T03:37:54;97501.44;;;13.14;44.34
41040;BME280;48586;50.122;18.972;2023-04-24T03:40:19;97508.09;;;13.17;44.49
41040;BME280;48586;50.122;18.972;2023-04-24T03:42:23;97499.81;;;13.18;44.82
41040;BME280;48586;50.122;18.972;2023-04-24T03:44:31;97501.41;;;13.19;44.11
41040;BME280;48586;50.122;18.972;2023-04-24T03:46:35;97498.75;;;13.19;44.12
41040;BME280;48586;50.122;18.972;2023-04-24T03:48:39;97501.41;;;13.19;44.42
41040;BME280;48586;50.122;18.972;2023-04-24T03:50:45;97497.16;;;13.18;43.56
41040;BME280;48586;50.122;18.972;2023-04-24T03:52:52;97497.16;;;13.18;43.44
41040;BME280;48586;50.122;18.972;2023-04-24T03:55:08;97500.88;;;13.17;43.73
41040;BME280;48586;50.122;18.972;2023-04-24T03:57:19;97498.19;;;13.17;42.79
41040;BME280;48586;50.122;18.972;2023-04-24T03:59:36;97496.59;;;13.16;42.96
41040;BME280;48586;50.122;18.972;2023-04-24T04:01:46;97500.88;;;13.17;42.62
41040;BME280;48586;50.122;18.972;2023-04-24T04:03:52;97497.41;;;13.17;42.17
41040;BME280;48586;50.122;18.972;2023-04-24T04:05:59;97507.03;;;13.18;42.07
41040;BME280;48586;50.122;18.972;2023-04-24T04:08:06;97499.81;;;13.18;41.60
41040;BME280;48586;50.122;18.972;2023-04-24T04:10:11;97492.84;;;13.17;41.90
41040;BME280;48586;50.122;18.972;2023-04-24T04:12:17;97495.28;;;13.19;41.71
41040;BME280;48586;50.122;18.972;2023-04-24T04:14:21;97498.47;;;13.21;41.58
41040;BME280;48586;50.122;18.972;2023-04-24T04:16:25;97500.88;;;13.22;41.40
41040;BME280;48586;50.122;18.972;2023-04-24T04:18:37;97495.53;;;13.22;41.61
41040;BME280;48586;50.122;18.972;2023-04-24T04:20:42;97492.06;;;13.22;41.46
41040;BME280;48586;50.122;18.972;2023-04-24T04:22:49;97491.22;;;13.21;41.63
41040;BME280;48586;50.122;18.972;2023-04-24T04:25:04;97495.78;;;13.21;41.65
41040;BME280;48586;50.122;18.972;2023-04-24T04:27:11;97503.00;;;13.20;41.65
41040;BME280;48586;50.122;18.972;2023-04-24T04:29:24;97499.78;;;13.23;41.50
41040;BME280;48586;50.122;18.972;2023-04-24T04:31:28;97495.44;;;13.38;40.80
41040;BME280;48586;50.122;18.972;2023-04-24T04:33:36;97491.69;;;13.44;40.36
41040;BME280;48586;50.122;18.972;2023-04-24T04:35:42;97490.31;;;13.46;40.23
41040;BME280;48586;50.122;18.972;2023-04-24T04:37:49;97489.25;;;13.47;40.09
41040;BME280;48586;50.122;18.972;2023-04-24T04:40:16;97488.97;;;13.49;40.06
41040;BME280;48586;50.122;18.972;2023-04-24T04:42:27;97485.22;;;13.50;39.21
41040;BME280;48586;50.122;18.972;2023-04-24T04:44:31;97490.03;;;13.53;39.45
41040;BME280;48586;50.122;18.972;2023-04-24T04:46:37;97487.31;;;13.58;39.54
41040;BME280;48586;50.122;18.972;2023-04-24T04:48:51;97487.28;;;13.63;39.72
41040;BME280;48586;50.122;18.972;2023-04-24T04:50:57;97489.09;;;13.73;39.98
41040;BME280;48586;50.122;18.972;2023-04-24T04:53:03;97480.25;;;13.78;39.84
41040;BME280;48586;50.122;18.972;2023-04-24T04:55:16;97488.47;;;13.86;39.73
41040;BME280;48586;50.122;18.972;2023-04-24T04:57:50;97490.59;;;13.94;40.03
41040;BME280;48586;50.122;18.972;2023-04-24T04:59:56;97490.00;;;14.03;40.16
41040;BME280;48586;50.122;18.972;2023-04-24T05:02:16;97488.63;;;14.10;39.97
41040;BME280;48586;50.122;18.972;2023-04-24T05:04:21;97499.81;;;14.17;39.81
41040;BME280;48586;50.122;18.972;2023-04-24T05:06:25;97494.94;;;14.24;39.79
41040;BME280;48586;50.122;18.972;2023-04-24T05:08:31;97496.75;;;14.34;39.64
41040;BME280;48586;50.122;18.972;2023-04-24T05:10:39;97494.25;;;14.43;39.70
41040;BME280;48586;50.122;18.972;2023-04-24T05:12:45;97494.72;;;14.50;39.69
41040;BME280;48586;50.122;18.972;2023-04-24T05:14:52;97494.63;;;14.60;39.19
41040;BME280;48586;50.122;18.972;2023-04-24T05:16:57;97491.84;;;14.70;38.89
41040;BME280;48586;50.122;18.972;2023-04-24T05:19:02;97488.25;;;14.80;38.69
41040;BME280;48586;50.122;18.972;2023-04-24T05:21:13;97494.31;;;14.91;38.44
41040;BME280;48586;50.122;18.972;2023-04-24T05:23:22;97487.34;;;14.95;37.16
41040;BME280;48586;50.122;18.972;2023-04-24T05:25:29;97495.56;;;15.04;36.63
41040;BME280;48586;50.122;18.972;2023-04-24T05:27:45;97487.16;;;15.10;36.60
41040;BME280;48586;50.122;18.972;2023-04-24T05:29:53;97495.94;;;15.16;36.21
41040;BME280;48586;50.122;18.972;2023-04-24T05:31:57;97492.41;;;15.20;35.91
41040;BME280;48586;50.122;18.972;2023-04-24T05:34:06;97485.38;;;15.24;36.30
41040;BME280;48586;50.122;18.972;2023-04-24T05:36:16;97485.91;;;15.27;36.03
41040;BME280;48586;50.122;18.972;2023-04-24T05:38:20;97489.66;;;15.25;35.78
41040;BME280;48586;50.122;18.972;2023-04-24T05:40:25;97491.56;;;15.25;35.57
41040;BME280;48586;50.122;18.972;2023-04-24T05:42:30;97487.00;;;15.25;35.76
41040;BME280;48586;50.122;18.972;2023-04-24T05:44:38;97487.22;;;15.29;36.20
41040;BME280;48586;50.122;18.972;2023-04-24T05:46:44;97493.56;;;15.33;35.85
41040;BME280;48586;50.122;18.972;2023-04-24T05:48:48;97487.41;;;15.33;35.78
41040;BME280;48586;50.122;18.972;2023-04-24T05:50:53;97492.50;;;15.34;35.69
41040;BME280;48586;50.122;18.972;2023-04-24T05:53:00;97486.56;;;15.37;35.94
41040;BME280;48586;50.122;18.972;2023-04-24T05:55:09;97488.44;;;15.37;35.82
41040;BME280;48586;50.122;18.972;2023-04-24T05:57:16;97484.41;;;15.39;36.22
41040;BME280;48586;50.122;18.972;2023-04-24T05:59:28;97475.25;;;15.40;36.00
41040;BME280;48586;50.122;18.972;2023-04-24T06:01:36;97482.19;;;15.41;36.03
41040;BME280;48586;50.122;18.972;2023-04-24T06:03:48;97481.13;;;15.42;36.11
41040;BME280;48586;50.122;18.972;2023-04-24T06:05:55;97478.97;;;15.44;35.99
41040;BME280;48586;50.122;18.972;2023-04-24T06:08:00;97471.44;;;15.46;36.27
41040;BME280;48586;50.122;18.972;2023-04-24T06:10:12;97472.41;;;15.50;36.47
41040;BME280;48586;50.122;18.972;2023-04-24T06:12:20;97467.81;;;15.56;36.78
41040;BME280;48586;50.122;18.972;2023-04-24T06:14:30;97470.41;;;15.61;36.58
41040;BME280;48586;50.122;18.972;2023-04-24T06:16:53;97470.84;;;15.68;36.68
41040;BME280;48586;50.122;18.972;2023-04-24T06:19:09;97468.59;;;15.75;36.54
41040;BME280;48586;50.122;18.972;2023-04-24T06:21:16;97457.75;;;15.81;36.19
41040;BME280;48586;50.122;18.972;2023-04-24T06:23:23;97467.34;;;15.87;36.36
41040;BME280;48586;50.122;18.972;2023-04-24T06:25:29;97458.94;;;15.93;36.48
41040;BME280;48586;50.122;18.972;2023-04-24T06:27:34;97470.13;;;16.00;36.28
41040;BME280;48586;50.122;18.972;2023-04-24T06:29:38;97464.59;;;16.11;35.92
41040;BME280;48586;50.122;18.972;2023-04-24T06:31:44;97468.50;;;16.18;35.73
41040;BME280;48586;50.122;18.972;2023-04-24T06:33:51;97461.09;;;16.29;35.84
41040;BME280;48586;50.122;18.972;2023-04-24T06:35:57;97467.06;;;16.40;35.78
41040;BME280;48586;50.122;18.972;2023-04-24T06:38:03;97459.91;;;16.49;35.41
41040;BME280;48586;50.122;18.972;2023-04-24T06:40:09;97457.06;;;16.59;35.04
41040;BME280;48586;50.122;18.972;2023-04-24T06:42:15;97458.75;;;16.69;34.85
41040;BME280;48586;50.122;18.972;2023-04-24T06:44:25;97463.16;;;16.79;34.01
41040;BME280;48586;50.122;18.972;2023-04-24T06:46:29;97459.81;;;16.87;33.32
41040;BME280;48586;50.122;18.972;2023-04-24T06:48:35;97464.97;;;16.97;34.71
41040;BME280;48586;50.122;18.972;2023-04-24T06:50:44;97451.81;;;17.09;34.86
41040;BME280;48586;50.122;18.972;2023-04-24T06:52:50;97457.50;;;17.21;34.01
41040;BME280;48586;50.122;18.972;2023-04-24T06:55:00;97457.00;;;17.33;34.01
41040;BME280;48586;50.122;18.972;2023-04-24T06:57:05;97450.28;;;17.44;33.59
41040;BME280;48586;50.122;18.972;2023-04-24T06:59:10;97452.75;;;17.55;33.62
41040;BME280;48586;50.122;18.972;2023-04-24T07:01:15;97452.75;;;17.68;33.46
41040;BME280;48586;50.122;18.972;2023-04-24T07:03:21;97448.44;;;17.81;33.39
41040;BME280;48586;50.122;18.972;2023-04-24T07:05:25;97450.25;;;17.94;32.74
41040;BME280;48586;50.122;18.972;2023-04-24T07:07:33;97445.59;;;18.09;32.10
41040;BME280;48586;50.122;18.972;2023-04-24T07:09:40;97437.75;;;18.21;32.36
41040;BME280;48586;50.122;18.972;2023-04-24T07:11:46;97445.59;;;18.31;31.05
41040;BME280;48586;50.122;18.972;2023-04-24T07:13:51;97443.91;;;18.44;31.67
41040;BME280;48586;50.122;18.972;2023-04-24T07:15:57;97442.59;;;18.55;31.19
41040;BME280;48586;50.122;18.972;2023-04-24T07:18:02;97444.38;;;18.68;31.23
41040;BME280;48586;50.122;18.972;2023-04-24T07:20:08;97433.81;;;18.81;31.01
41040;BME280;48586;50.122;18.972;2023-04-24T07:22:16;97438.47;;;18.97;31.12
41040;BME280;48586;50.122;18.972;2023-04-24T07:24:25;97436.78;;;19.10;30.12
41040;BME280;48586;50.122;18.972;2023-04-24T07:26:31;97437.44;;;19.24;30.35
41040;BME280;48586;50.122;18.972;2023-04-24T07:28:36;97427.97;;;19.36;30.42
41040;BME280;48586;50.122;18.972;2023-04-24T07:30:41;97430.03;;;19.47;30.20
41040;BME280;48586;50.122;18.972;2023-04-24T07:32:47;97424.16;;;19.54;29.80
41040;BME280;48586;50.122;18.972;2023-04-24T07:34:52;97428.94;;;19.66;29.71
41040;BME280;48586;50.122;18.972;2023-04-24T07:36:57;97421.13;;;19.73;28.85
41040;BME280;48586;50.122;18.972;2023-04-24T07:39:02;97427.66;;;19.81;28.46
41040;BME280;48586;50.122;18.972;2023-04-24T07:41:11;97424.94;;;19.89;29.04
41040;BME280;48586;50.122;18.972;2023-04-24T07:43:16;97427.19;;;19.96;29.28
41040;BME280;48586;50.122;18.972;2023-04-24T07:45:22;97421.91;;;19.99;28.31
41040;BME280;48586;50.122;18.972;2023-04-24T07:47:30;97425.72;;;20.07;28.64
41040;BME280;48586;50.122;18.972;2023-04-24T07:49:36;97430.53;;;20.10;27.11
41040;BME280;48586;50.122;18.972;2023-04-24T07:51:41;97420.03;;;20.17;28.08
41040;BME280;48586;50.122;18.972;2023-04-24T07:53:46;97427.97;;;20.22;27.15
41040;BME280;48586;50.122;18.972;2023-04-24T07:55:52;97425.44;;;20.17;26.97
41040;BME280;48586;50.122;18.972;2023-04-24T07:58:01;97425.13;;;20.10;26.90
41040;BME280;48586;50.122;18.972;2023-04-24T08:00:08;97423.22;;;20.11;26.99
41040;BME280;48586;50.122;18.972;2023-04-24T08:02:15;97416.06;;;20.15;28.10
41040;BME280;48586;50.122;18.972;2023-04-24T08:04:20;97419.84;;;20.22;27.70
41040;BME280;48586;50.122;18.972;2023-04-24T08:06:26;97419.50;;;20.33;28.04
41040;BME280;48586;50.122;18.972;2023-04-24T08:08:32;97423.66;;;20.39;27.02
41040;BME280;48586;50.122;18.972;2023-04-24T08:10:38;97414.59;;;20.35;26.34
41040;BME280;48586;50.122;18.972;2023-04-24T08:12:44;97414.59;;;20.35;27.10
41040;BME280;48586;50.122;18.972;2023-04-24T08:14:52;97416.97;;;20.36;25.99
41040;BME280;48586;50.122;18.972;2023-04-24T08:16:57;97408.50;;;20.38;24.91
41040;BME280;48586;50.122;18.972;2023-04-24T08:19:03;97409.97;;;20.35;24.97
41040;BME280;48586;50.122;18.972;2023-04-24T08:21:08;97413.28;;;20.41;25.61
41040;BME280;48586;50.122;18.972;2023-04-24T08:23:14;97410.22;;;20.51;25.67
41040;BME280;48586;50.122;18.972;2023-04-24T08:25:19;97401.63;;;20.58;23.67
41040;BME280;48586;50.122;18.972;2023-04-24T08:27:26;97404.91;;;20.63;24.02
41040;BME280;48586;50.122;18.972;2023-04-24T08:29:31;97403.34;;;20.62;23.70
41040;BME280;48586;50.122;18.972;2023-04-24T08:31:40;97408.41;;;20.64;24.09
41040;BME280;48586;50.122;18.972;2023-04-24T08:33:45;97406.16;;;20.74;24.80
41040;BME280;48586;50.122;18.972;2023-04-24T08:35:50;97404.03;;;20.89;24.96
41040;BME280;48586;50.122;18.972;2023-04-24T08:37:57;97395.38;;;21.04;24.87
41040;BME280;48586;50.122;18.972;2023-04-24T08:40:01;97392.28;;;21.14;24.28
41040;BME280;48586;50.122;18.972;2023-04-24T08:42:11;97388.06;;;21.26;25.21
41040;BME280;48586;50.122;18.972;2023-04-24T08:44:20;97394.16;;;21.43;23.75
41040;BME280;48586;50.122;18.972;2023-04-24T08:46:25;97386.84;;;21.65;24.26
41040;BME280;48586;50.122;18.972;2023-04-24T08:48:34;97387.75;;;21.90;25.05
41040;BME280;48586;50.122;18.972;2023-04-24T08:50:41;97386.00;;;22.18;25.12
41040;BME280;48586;50.122;18.972;2023-04-24T08:52:47;97379.09;;;22.42;24.58
41040;BME280;48586;50.122;18.972;2023-04-24T08:54:55;97375.94;;;22.64;24.63
41040;BME280;48586;50.122;18.972;2023-04-24T08:57:03;97374.81;;;22.90;24.74
41040;BME280;48586;50.122;18.972;2023-04-24T08:59:08;97383.66;;;23.11;24.67
41040;BME280;48586;50.122;18.972;2023-04-24T09:01:14;97377.97;;;23.29;24.22
41040;BME280;48586;50.122;18.972;2023-04-24T09:03:21;97374.63;;;23.47;23.52
41040;BME280;48586;50.122;18.972;2023-04-24T09:05:29;97369.16;;;23.72;23.46
41040;BME280;48586;50.122;18.972;2023-04-24T09:07:35;97374.59;;;23.72;21.66
41040;BME280;48586;50.122;18.972;2023-04-24T09:09:44;97374.91;;;23.70;21.64
41040;BME280;48586;50.122;18.972;2023-04-24T09:11:50;97368.78;;;23.74;21.52
41040;BME280;48586;50.122;18.972;2023-04-24T09:13:58;97375.81;;;23.62;21.83
41040;BME280;48586;50.122;18.972;2023-04-24T09:16:06;97379.81;;;23.65;22.44
41040;BME280;48586;50.122;18.972;2023-04-24T09:18:11;97384.47;;;23.52;21.75
41040;BME280;48586;50.122;18.972;2023-04-24T09:20:16;97373.63;;;23.40;21.69
41040;BME280;48586;50.122;18.972;2023-04-24T09:22:25;97373.97;;;23.38;22.20
41040;BME280;48586;50.122;18.972;2023-04-24T09:24:35;97378.88;;;23.33;22.07
41040;BME280;48586;50.122;18.972;2023-04-24T09:26:40;97374.91;;;23.30;21.63
41040;BME280;48586;50.122;18.972;2023-04-24T09:28:47;97373.22;;;23.26;21.56
41040;BME280;48586;50.122;18.972;2023-04-24T09:31:03;97368.69;;;23.30;22.38
41040;BME280;48586;50.122;18.972;2023-04-24T09:33:13;97366.47;;;23.47;21.65
41040;BME280;48586;50.122;18.972;2023-04-24T09:35:19;97368.41;;;23.47;21.40
41040;BME280;48586;50.122;18.972;2023-04-24T09:37:35;97367.00;;;23.53;21.62
41040;BME280;48586;50.122;18.972;2023-04-24T09:39:43;97370.31;;;23.59;21.60
41040;BME280;48586;50.122;18.972;2023-04-24T09:41:50;97364.44;;;23.44;21.48
41040;BME280;48586;50.122;18.972;2023-04-24T09:44:10;97359.91;;;23.36;22.25
41040;BME280;48586;50.122;18.972;2023-04-24T09:46:18;97361.44;;;23.21;21.98
41040;BME280;48586;50.122;18.972;2023-04-24T09:48:31;97369.03;;;23.16;22.14
41040;BME280;48586;50.122;18.972;2023-04-24T09:50:37;97361.69;;;23.16;21.54
41040;BME280;48586;50.122;18.972;2023-04-24T09:52:46;97356.13;;;23.25;22.03
41040;BME280;48586;50.122;18.972;2023-04-24T09:55:01;97359.50;;;23.34;21.80
41040;BME280;48586;50.122;18.972;2023-04-24T09:57:07;97355.25;;;23.49;22.58
41040;BME280;48586;50.122;18.972;2023-04-24T09:59:14;97356.22;;;23.69;22.22
41040;BME280;48586;50.122;18.972;2023-04-24T10:01:30;97355.19;;;23.74;22.01
41040;BME280;48586;50.122;18.972;2023-04-24T10:03:35;97355.28;;;23.77;21.68
41040;BME280;48586;50.122;18.972;2023-04-24T10:05:40;97358.28;;;23.72;21.45
41040;BME280;48586;50.122;18.972;2023-04-24T10:07:48;97359.31;;;23.67;21.57
41040;BME280;48586;50.122;18.972;2023-04-24T10:09:54;97354.13;;;23.50;21.85
41040;BME280;48586;50.122;18.972;2023-04-24T10:11:59;97356.69;;;23.18;22.44
41040;BME280;48586;50.122;18.972;2023-04-24T10:14:06;97350.38;;;22.90;23.33
41040;BME280;48586;50.122;18.972;2023-04-24T10:16:14;97352.53;;;22.60;22.93
41040;BME280;48586;50.122;18.972;2023-04-24T10:18:20;97362.28;;;22.28;23.50
41040;BME280;48586;50.122;18.972;2023-04-24T10:20:28;97356.09;;;21.94;24.11
41040;BME280;48586;50.122;18.972;2023-04-24T10:22:35;97363.50;;;21.72;24.57
41040;BME280;48586;50.122;18.972;2023-04-24T10:24:45;97358.47;;;21.62;24.99
41040;BME280;48586;50.122;18.972;2023-04-24T10:26:55;97356.75;;;21.37;25.43
41040;BME280;48586;50.122;18.972;2023-04-24T10:29:01;97358.50;;;21.12;25.94
41040;BME280;48586;50.122;18.972;2023-04-24T10:31:07;97374.41;;;20.92;26.74
41040;BME280;48586;50.122;18.972;2023-04-24T10:33:14;97375.06;;;20.81;26.67
41040;BME280;48586;50.122;18.972;2023-04-24T10:35:23;97384.13;;;20.46;26.56
41040;BME280;48586;50.122;18.972;2023-04-24T10:37:29;97373.53;;;20.33;27.26
41040;BME280;48586;50.122;18.972;2023-04-24T10:39:47;97387.88;;;20.07;27.49
41040;BME280;48586;50.122;18.972;2023-04-24T10:41:55;97381.25;;;19.96;28.35
41040;BME280;48586;50.122;18.972;2023-04-24T10:44:08;97372.66;;;19.85;28.36
41040;BME280;48586;50.122;18.972;2023-04-24T10:46:20;97376.94;;;19.78;28.69
41040;BME280;48586;50.122;18.972;2023-04-24T10:48:27;97379.66;;;19.69;28.82
41040;BME280;48586;50.122;18.972;2023-04-24T10:50:43;97375.03;;;19.69;28.74
41040;BME280;48586;50.122;18.972;2023-04-24T10:52:51;97371.41;;;19.65;28.62
41040;BME280;48586;50.122;18.972;2023-04-24T10:55:03;97373.97;;;19.53;28.73
41040;BME280;48586;50.122;18.972;2023-04-24T10:57:27;97379.81;;;19.46;29.02
41040;BME280;48586;50.122;18.972;2023-04-24T10:59:35;97389.38;;;19.44;28.50
41040;BME280;48586;50.122;18.972;2023-04-24T11:01:40;97381.72;;;19.37;28.86
41040;BME280;48586;50.122;18.972;2023-04-24T11:04:06;97377.91;;;19.38;28.88
41040;BME280;48586;50.122;18.972;2023-04-24T11:06:12;97387.75;;;19.43;29.24